createdAt,value
2018-06-21T00:00:13.278Z,20.16
2018-06-21T00:01:13.272Z,20.13
2018-06-21T00:02:13.274Z,20.13
2018-06-21T00:03:13.261Z,20.03
2018-06-21T00:04:13.251Z,20.02
2018-06-21T00:05:13.243Z,20.01
2018-06-21T00:06:13.235Z,20.05
2018-06-21T00:07:13.228Z,20.01
2018-06-21T00:08:13.222Z,19.95
2018-06-21T00:09:13.216Z,19.91
2018-06-21T00:10:13.208Z,19.91
2018-06-21T00:11:13.202Z,19.84
2018-06-21T00:12:13.194Z,19.92
2018-06-21T00:13:13.190Z,19.84
2018-06-21T00:14:13.182Z,19.80
2018-06-21T00:15:13.173Z,19.88
2018-06-21T00:16:13.165Z,19.87
2018-06-21T00:17:13.164Z,19.91
2018-06-21T00:18:13.153Z,19.86
2018-06-21T00:19:13.149Z,19.86
2018-06-21T00:20:13.143Z,19.88
2018-06-21T00:21:13.129Z,19.77
2018-06-21T00:22:13.129Z,19.78
2018-06-21T00:23:13.112Z,19.77
2018-06-21T00:24:13.109Z,19.76
2018-06-21T00:25:13.098Z,19.76
2018-06-21T00:26:13.095Z,19.73
2018-06-21T00:27:13.082Z,19.80
2018-06-21T00:28:13.078Z,19.73
2018-06-21T00:29:13.109Z,19.87
2018-06-21T00:30:13.064Z,19.76
2018-06-21T00:31:13.061Z,19.74
2018-06-21T00:32:13.049Z,19.76
2018-06-21T00:33:13.043Z,19.76
2018-06-21T00:34:13.037Z,19.81
2018-06-21T00:35:13.025Z,19.78
2018-06-21T00:36:13.019Z,19.80
2018-06-21T00:37:13.012Z,19.76
2018-06-21T00:38:13.007Z,19.80
2018-06-21T00:39:12.997Z,19.80
2018-06-21T00:40:12.991Z,19.69
2018-06-21T00:41:12.983Z,19.77
2018-06-21T00:42:12.978Z,19.74
2018-06-21T00:43:12.968Z,19.73
2018-06-21T00:44:12.965Z,19.81
2018-06-21T00:45:12.953Z,19.81
2018-06-21T00:46:12.949Z,19.69
2018-06-21T00:47:12.940Z,19.76
2018-06-21T00:48:12.928Z,19.68
2018-06-21T00:49:12.924Z,19.68
2018-06-21T00:50:12.925Z,19.73
2018-06-21T00:51:12.906Z,19.74
2018-06-21T00:52:12.901Z,19.71
2018-06-21T00:53:12.900Z,19.69
2018-06-21T00:54:12.888Z,19.71
2018-06-21T00:55:12.881Z,19.80
2018-06-21T00:56:12.877Z,19.68
2018-06-21T00:57:12.865Z,19.74
2018-06-21T00:58:12.861Z,19.65
2018-06-21T00:59:12.853Z,19.66
2018-06-21T01:00:12.851Z,19.80
2018-06-21T01:01:12.841Z,19.73
2018-06-21T01:02:12.833Z,19.74
2018-06-21T01:03:12.818Z,19.76
2018-06-21T01:04:12.824Z,19.73
2018-06-21T01:05:12.811Z,19.71
2018-06-21T01:06:12.802Z,19.63
2018-06-21T01:07:12.793Z,19.62
2018-06-21T01:08:12.785Z,19.66
2018-06-21T01:09:12.786Z,19.63
2018-06-21T01:10:12.773Z,19.62
2018-06-21T01:11:12.767Z,19.68
2018-06-21T01:12:12.758Z,19.69
2018-06-21T01:13:12.751Z,19.63
2018-06-21T01:14:12.741Z,19.68
2018-06-21T01:15:12.733Z,19.58
2018-06-21T01:16:12.729Z,19.65
2018-06-21T01:17:12.719Z,19.59
2018-06-21T01:18:12.713Z,19.69
2018-06-21T01:19:12.711Z,19.63
2018-06-21T01:20:12.696Z,19.63
2018-06-21T01:21:12.686Z,19.68
2018-06-21T01:22:12.694Z,19.77
2018-06-21T01:23:12.677Z,19.62
2018-06-21T01:24:12.667Z,19.65
2018-06-21T01:25:12.661Z,19.66
2018-06-21T01:26:12.655Z,19.68
2018-06-21T01:27:12.643Z,19.66
2018-06-21T01:28:12.639Z,19.59
2018-06-21T01:29:12.628Z,19.61
2018-06-21T01:30:12.631Z,19.59
2018-06-21T01:31:12.616Z,19.50
2018-06-21T01:32:12.608Z,19.56
2018-06-21T01:33:12.599Z,19.55
2018-06-21T01:34:12.593Z,19.63
2018-06-21T01:35:12.586Z,19.59
2018-06-21T01:36:12.577Z,19.56
2018-06-21T01:37:12.571Z,19.50
2018-06-21T01:38:12.576Z,19.56
2018-06-21T01:39:12.561Z,19.59
2018-06-21T01:40:12.551Z,19.54
2018-06-21T01:41:12.543Z,19.47
2018-06-21T01:42:12.539Z,19.40
2018-06-21T01:43:12.533Z,19.48
2018-06-21T01:44:12.517Z,19.44
2018-06-21T01:45:12.512Z,19.46
2018-06-21T01:46:12.507Z,19.48
2018-06-21T01:47:12.499Z,19.39
2018-06-21T01:48:12.489Z,19.36
2018-06-21T01:49:12.482Z,19.44
2018-06-21T01:50:12.475Z,19.37
2018-06-21T01:51:12.469Z,19.44
2018-06-21T01:52:12.459Z,19.41
2018-06-21T01:53:12.455Z,19.44
2018-06-21T01:54:12.443Z,19.40
2018-06-21T01:55:12.435Z,19.36
2018-06-21T01:56:12.429Z,19.36
2018-06-21T01:57:12.420Z,19.31
2018-06-21T01:58:12.409Z,19.29
2018-06-21T01:59:12.412Z,19.26
2018-06-21T02:00:12.402Z,19.31
2018-06-21T02:01:12.396Z,19.25
2018-06-21T02:02:12.382Z,19.31
2018-06-21T02:03:12.379Z,19.16
2018-06-21T02:04:12.366Z,19.25
2018-06-21T02:05:12.364Z,19.23
2018-06-21T02:06:12.346Z,19.14
2018-06-21T02:07:12.345Z,19.23
2018-06-21T02:08:12.337Z,19.22
2018-06-21T02:09:12.339Z,19.21
2018-06-21T02:10:12.323Z,19.16
2018-06-21T02:11:12.316Z,19.18
2018-06-21T02:12:12.311Z,19.22
2018-06-21T02:13:12.305Z,19.18
2018-06-21T02:14:12.294Z,19.18
2018-06-21T02:15:12.285Z,19.19
2018-06-21T02:16:12.278Z,19.18
2018-06-21T02:17:12.271Z,19.18
2018-06-21T02:18:12.268Z,19.18
2018-06-21T02:19:12.257Z,19.19
2018-06-21T02:20:12.249Z,19.23
2018-06-21T02:21:12.246Z,19.07
2018-06-21T02:22:12.234Z,18.95
2018-06-21T02:23:12.225Z,18.98
2018-06-21T02:24:12.216Z,18.92
2018-06-21T02:25:12.208Z,18.85
2018-06-21T02:26:12.202Z,18.73
2018-06-21T02:27:12.194Z,18.87
2018-06-21T02:28:12.186Z,18.88
2018-06-21T02:29:12.179Z,18.87
2018-06-21T02:30:12.179Z,18.80
2018-06-21T02:31:12.160Z,18.85
2018-06-21T02:32:12.163Z,18.94
2018-06-21T02:33:12.149Z,18.87
2018-06-21T02:34:12.196Z,18.92
2018-06-21T02:35:12.131Z,18.87
2018-06-21T02:36:12.128Z,18.90
2018-06-21T02:37:12.118Z,18.85
2018-06-21T02:38:12.118Z,18.87
2018-06-21T02:39:12.101Z,18.75
2018-06-21T02:40:12.093Z,18.76
2018-06-21T02:41:12.096Z,18.80
2018-06-21T02:42:12.084Z,18.72
2018-06-21T02:43:12.069Z,18.69
2018-06-21T02:44:12.074Z,18.73
2018-06-21T02:45:12.059Z,18.72
2018-06-21T02:46:12.052Z,18.80
2018-06-21T02:47:12.034Z,18.75
2018-06-21T02:48:12.032Z,18.76
2018-06-21T02:49:12.027Z,18.70
2018-06-21T02:50:12.016Z,18.76
2018-06-21T02:51:12.009Z,18.70
2018-06-21T02:52:12.016Z,18.67
2018-06-21T02:53:11.995Z,18.70
2018-06-21T02:54:11.987Z,18.73
2018-06-21T02:55:11.975Z,18.72
2018-06-21T02:56:11.973Z,18.80
2018-06-21T02:57:11.964Z,18.67
2018-06-21T02:58:11.955Z,18.70
2018-06-21T02:59:11.945Z,18.75
2018-06-21T03:00:11.938Z,18.69
2018-06-21T03:01:11.930Z,18.67
2018-06-21T03:02:11.927Z,18.67
2018-06-21T03:03:11.925Z,18.75
2018-06-21T03:04:11.907Z,18.78
2018-06-21T03:05:11.896Z,18.75
2018-06-21T03:06:11.889Z,18.73
2018-06-21T03:07:11.883Z,18.75
2018-06-21T03:08:11.873Z,18.75
2018-06-21T03:09:11.865Z,18.75
2018-06-21T03:10:11.859Z,18.72
2018-06-21T03:11:11.853Z,18.72
2018-06-21T03:12:11.844Z,18.75
2018-06-21T03:13:11.835Z,18.82
2018-06-21T03:14:11.833Z,18.72
2018-06-21T03:15:11.817Z,18.76
2018-06-21T03:16:11.808Z,18.76
2018-06-21T03:17:11.802Z,18.88
2018-06-21T03:18:11.793Z,18.84
2018-06-21T03:19:11.792Z,18.82
2018-06-21T03:20:11.782Z,18.87
2018-06-21T03:21:11.771Z,18.85
2018-06-21T03:22:11.766Z,18.82
2018-06-21T03:23:11.754Z,18.82
2018-06-21T03:24:11.745Z,18.69
2018-06-21T03:25:11.740Z,18.67
2018-06-21T03:26:11.726Z,18.72
2018-06-21T03:27:11.742Z,18.72
2018-06-21T03:28:11.733Z,18.65
2018-06-21T03:29:11.710Z,18.76
2018-06-21T03:30:11.705Z,18.70
2018-06-21T03:31:11.689Z,18.63
2018-06-21T03:32:11.687Z,18.69
2018-06-21T03:33:11.676Z,18.60
2018-06-21T03:34:11.673Z,18.60
2018-06-21T03:35:11.662Z,18.63
2018-06-21T03:36:11.652Z,18.52
2018-06-21T03:37:11.644Z,18.51
2018-06-21T03:38:11.636Z,18.47
2018-06-21T03:39:11.626Z,18.51
2018-06-21T03:40:11.617Z,18.50
2018-06-21T03:41:11.610Z,18.55
2018-06-21T03:42:11.599Z,18.51
2018-06-21T03:43:11.594Z,18.57
2018-06-21T03:44:11.585Z,18.57
2018-06-21T03:45:11.580Z,18.62
2018-06-21T03:46:11.578Z,18.48
2018-06-21T03:47:11.559Z,18.51
2018-06-21T03:48:11.550Z,18.51
2018-06-21T03:49:11.550Z,18.45
2018-06-21T03:50:11.542Z,18.48
2018-06-21T03:51:11.533Z,18.47
2018-06-21T03:52:11.581Z,18.51
2018-06-21T03:53:11.514Z,18.41
2018-06-21T03:54:11.505Z,18.41
2018-06-21T03:55:11.497Z,18.41
2018-06-21T03:56:11.489Z,18.42
2018-06-21T03:57:11.491Z,18.39
2018-06-21T03:58:11.479Z,18.36
2018-06-21T03:59:11.468Z,18.35
2018-06-21T04:00:11.467Z,18.39
2018-06-21T04:01:11.454Z,18.39
2018-06-21T04:02:11.439Z,18.41
2018-06-21T04:03:11.448Z,18.44
2018-06-21T04:04:11.438Z,18.37
2018-06-21T04:05:11.424Z,18.36
2018-06-21T04:06:11.414Z,18.36
2018-06-21T04:07:11.403Z,18.41
2018-06-21T04:08:11.396Z,18.36
2018-06-21T04:09:11.389Z,18.42
2018-06-21T04:10:11.379Z,18.35
2018-06-21T04:11:11.368Z,18.37
2018-06-21T04:12:11.365Z,18.29
2018-06-21T04:13:11.353Z,18.36
2018-06-21T04:14:11.351Z,18.37
2018-06-21T04:15:11.336Z,18.37
2018-06-21T04:16:11.329Z,18.30
2018-06-21T04:17:11.322Z,18.33
2018-06-21T04:18:11.314Z,18.29
2018-06-21T04:19:11.310Z,18.35
2018-06-21T04:20:11.306Z,18.35
2018-06-21T04:21:11.291Z,18.30
2018-06-21T04:22:11.281Z,18.35
2018-06-21T04:23:11.271Z,18.41
2018-06-21T04:24:11.269Z,18.41
2018-06-21T04:25:11.253Z,18.41
2018-06-21T04:26:11.246Z,18.39
2018-06-21T04:27:11.239Z,18.42
2018-06-21T04:28:11.234Z,18.47
2018-06-21T04:29:11.237Z,18.55
2018-06-21T04:30:11.219Z,18.57
2018-06-21T04:31:11.217Z,18.54
2018-06-21T04:32:11.202Z,18.60
2018-06-21T04:33:11.192Z,18.54
2018-06-21T04:34:11.182Z,18.57
2018-06-21T04:35:11.179Z,18.72
2018-06-21T04:36:11.174Z,18.67
2018-06-21T04:37:11.155Z,18.69
2018-06-21T04:38:11.152Z,18.72
2018-06-21T04:39:11.140Z,18.78
2018-06-21T04:40:11.137Z,18.69
2018-06-21T04:41:11.126Z,18.82
2018-06-21T04:42:11.123Z,18.82
2018-06-21T04:43:11.113Z,18.85
2018-06-21T04:44:11.100Z,18.88
2018-06-21T04:45:11.094Z,18.88
2018-06-21T04:46:11.087Z,18.85
2018-06-21T04:47:11.080Z,18.88
2018-06-21T04:48:11.070Z,18.87
2018-06-21T04:49:11.065Z,19.00
2018-06-21T04:50:11.058Z,19.04
2018-06-21T04:51:11.048Z,19.00
2018-06-21T04:52:11.042Z,18.99
2018-06-21T04:53:11.027Z,19.04
2018-06-21T04:54:11.061Z,19.13
2018-06-21T04:55:11.013Z,19.08
2018-06-21T04:56:11.005Z,19.10
2018-06-21T04:57:10.999Z,19.19
2018-06-21T04:58:10.991Z,19.19
2018-06-21T04:59:10.981Z,19.23
2018-06-21T05:00:11.067Z,19.13
2018-06-21T05:01:10.963Z,19.22
2018-06-21T05:02:10.963Z,19.19
2018-06-21T05:03:10.957Z,19.14
2018-06-21T05:04:10.946Z,19.21
2018-06-21T05:05:10.940Z,19.07
2018-06-21T05:06:10.926Z,19.16
2018-06-21T05:07:10.916Z,19.10
2018-06-21T05:08:10.911Z,19.13
2018-06-21T05:09:10.907Z,19.18
2018-06-21T05:10:10.901Z,19.04
2018-06-21T05:11:10.890Z,19.08
2018-06-21T05:12:10.883Z,19.16
2018-06-21T05:13:10.876Z,19.10
2018-06-21T05:14:10.864Z,19.10
2018-06-21T05:15:10.855Z,19.06
2018-06-21T05:16:10.851Z,19.10
2018-06-21T05:17:10.847Z,19.08
2018-06-21T05:18:10.837Z,19.16
2018-06-21T05:19:10.828Z,19.16
2018-06-21T05:20:10.820Z,19.18
2018-06-21T05:21:10.810Z,19.18
2018-06-21T05:22:10.802Z,19.18
2018-06-21T05:23:10.793Z,19.19
2018-06-21T05:24:10.789Z,19.16
2018-06-21T05:25:10.802Z,19.19
2018-06-21T05:26:10.771Z,19.18
2018-06-21T05:27:10.764Z,19.21
2018-06-21T05:28:10.760Z,19.16
2018-06-21T05:29:10.751Z,19.11
2018-06-21T05:30:10.745Z,19.04
2018-06-21T05:31:10.730Z,18.98
2018-06-21T05:32:10.779Z,18.91
2018-06-21T05:33:10.718Z,18.88
2018-06-21T05:34:10.708Z,18.88
2018-06-21T05:35:10.699Z,18.85
2018-06-21T05:36:10.690Z,18.87
2018-06-21T05:37:10.683Z,18.99
2018-06-21T05:38:10.678Z,18.90
2018-06-21T05:39:10.669Z,19.00
2018-06-21T05:40:10.661Z,18.98
2018-06-21T05:41:10.646Z,18.88
2018-06-21T05:42:10.648Z,19.00
2018-06-21T05:43:10.640Z,19.04
2018-06-21T05:44:10.638Z,19.07
2018-06-21T05:45:10.626Z,19.04
2018-06-21T05:46:10.620Z,19.19
2018-06-21T05:47:10.609Z,19.16
2018-06-21T05:48:10.594Z,19.19
2018-06-21T05:49:10.593Z,19.28
2018-06-21T05:50:10.633Z,19.22
2018-06-21T05:51:10.571Z,19.29
2018-06-21T05:52:10.571Z,19.29
2018-06-21T05:53:10.560Z,19.26
2018-06-21T05:54:10.547Z,19.28
2018-06-21T05:55:10.548Z,19.28
2018-06-21T05:56:10.542Z,19.26
2018-06-21T05:57:10.528Z,19.26
2018-06-21T05:58:10.526Z,19.29
2018-06-21T05:59:10.513Z,19.28
2018-06-21T06:00:10.507Z,19.43
2018-06-21T06:01:10.497Z,19.41
2018-06-21T06:02:10.485Z,19.59
2018-06-21T06:03:10.480Z,19.63
2018-06-21T06:04:10.473Z,19.83
2018-06-21T06:05:10.468Z,19.91
2018-06-21T06:06:10.459Z,19.92
2018-06-21T06:07:10.452Z,20.06
2018-06-21T06:08:10.498Z,19.99
2018-06-21T06:09:10.437Z,20.13
2018-06-21T06:10:10.464Z,20.24
2018-06-21T06:11:10.418Z,20.23
2018-06-21T06:12:10.416Z,20.28
2018-06-21T06:13:10.415Z,20.33
2018-06-21T06:14:10.461Z,20.26
2018-06-21T06:15:10.387Z,20.31
2018-06-21T06:16:10.384Z,20.35
2018-06-21T06:17:10.373Z,20.38
2018-06-21T06:18:10.365Z,20.57
2018-06-21T06:19:10.359Z,20.64
2018-06-21T06:20:10.354Z,20.82
2018-06-21T06:21:10.344Z,20.89
2018-06-21T06:22:10.340Z,20.91
2018-06-21T06:23:10.330Z,20.87
2018-06-21T06:24:10.325Z,20.99
2018-06-21T06:25:10.320Z,20.98
2018-06-21T06:26:10.306Z,21.07
2018-06-21T06:27:10.296Z,21.09
2018-06-21T06:28:10.294Z,21.13
2018-06-21T06:29:10.284Z,21.14
2018-06-21T06:30:10.283Z,21.31
2018-06-21T06:31:10.273Z,21.27
2018-06-21T06:32:10.261Z,21.25
2018-06-21T06:33:10.260Z,21.27
2018-06-21T06:34:10.251Z,21.21
2018-06-21T06:35:10.242Z,21.25
2018-06-21T06:36:10.238Z,21.19
2018-06-21T06:37:10.231Z,21.27
2018-06-21T06:38:10.223Z,21.21
2018-06-21T06:39:10.220Z,21.27
2018-06-21T06:40:10.210Z,21.32
2018-06-21T06:41:10.203Z,21.21
2018-06-21T06:42:10.204Z,21.27
2018-06-21T06:43:10.185Z,21.24
2018-06-21T06:44:10.178Z,21.17
2018-06-21T06:45:10.169Z,21.22
2018-06-21T06:46:10.182Z,21.32
2018-06-21T06:47:10.160Z,21.43
2018-06-21T06:48:10.152Z,21.44
2018-06-21T06:49:10.146Z,21.47
2018-06-21T06:50:10.140Z,21.62
2018-06-21T06:51:10.128Z,21.65
2018-06-21T06:52:10.122Z,21.91
2018-06-21T06:53:10.117Z,21.98
2018-06-21T06:54:10.114Z,22.03
2018-06-21T06:55:10.107Z,22.06
2018-06-21T06:56:10.101Z,22.20
2018-06-21T06:57:10.089Z,22.20
2018-06-21T06:58:10.087Z,22.39
2018-06-21T06:59:10.091Z,22.47
2018-06-21T07:00:10.067Z,22.55
2018-06-21T07:01:10.070Z,22.68
2018-06-21T07:02:10.065Z,22.76
2018-06-21T07:03:10.051Z,22.80
2018-06-21T07:04:10.045Z,22.85
2018-06-21T07:05:10.037Z,22.97
2018-06-21T07:06:10.031Z,23.00
2018-06-21T07:07:10.027Z,23.16
2018-06-21T07:08:10.020Z,23.17
2018-06-21T07:09:10.015Z,23.25
2018-06-21T07:10:10.007Z,23.31
2018-06-21T07:11:09.998Z,23.33
2018-06-21T07:12:09.994Z,23.42
2018-06-21T07:13:09.985Z,23.43
2018-06-21T07:14:10.041Z,23.50
2018-06-21T07:15:09.978Z,23.54
2018-06-21T07:16:09.972Z,23.60
2018-06-21T07:17:09.965Z,23.65
2018-06-21T07:18:09.954Z,23.69
2018-06-21T07:19:09.951Z,23.79
2018-06-21T07:20:09.949Z,23.85
2018-06-21T07:21:09.947Z,23.80
2018-06-21T07:22:09.931Z,23.80
2018-06-21T07:23:09.928Z,23.88
2018-06-21T07:24:09.922Z,23.97
2018-06-21T07:25:09.916Z,24.00
2018-06-21T07:26:09.908Z,24.09
2018-06-21T07:27:09.932Z,24.03
2018-06-21T07:28:09.901Z,24.08
2018-06-21T07:29:09.891Z,23.95
2018-06-21T07:30:09.901Z,23.87
2018-06-21T07:31:09.880Z,23.84
2018-06-21T07:32:09.871Z,24.02
2018-06-21T07:33:09.872Z,23.97
2018-06-21T07:34:09.866Z,23.95
2018-06-21T07:35:09.859Z,24.02
2018-06-21T07:36:09.849Z,23.97
2018-06-21T07:37:09.848Z,23.93
2018-06-21T07:38:09.842Z,24.02
2018-06-21T07:39:09.835Z,23.95
2018-06-21T07:40:09.828Z,24.02
2018-06-21T07:41:09.820Z,24.02
2018-06-21T07:42:09.819Z,23.88
2018-06-21T07:43:09.819Z,23.90
2018-06-21T07:44:09.810Z,23.72
2018-06-21T07:45:09.802Z,23.53
2018-06-21T07:46:09.805Z,23.36
2018-06-21T07:47:09.791Z,23.35
2018-06-21T07:48:09.783Z,23.47
2018-06-21T07:49:09.780Z,23.54
2018-06-21T07:50:09.775Z,23.63
2018-06-21T07:51:09.770Z,23.73
2018-06-21T07:52:09.764Z,23.78
2018-06-21T07:53:09.759Z,23.83
2018-06-21T07:54:09.751Z,23.85
2018-06-21T07:55:09.743Z,23.88
2018-06-21T07:56:09.733Z,23.93
2018-06-21T07:57:09.733Z,23.95
2018-06-21T07:58:09.728Z,24.15
2018-06-21T07:59:09.780Z,24.13
2018-06-21T08:00:09.715Z,24.21
2018-06-21T08:01:09.712Z,24.21
2018-06-21T08:02:09.708Z,24.34
2018-06-21T08:03:09.705Z,24.31
2018-06-21T08:04:09.694Z,24.39
2018-06-21T08:05:09.795Z,24.40
2018-06-21T08:06:09.688Z,24.46
2018-06-21T08:07:09.681Z,24.55
2018-06-21T08:08:09.672Z,24.68
2018-06-21T08:09:09.665Z,24.77
2018-06-21T08:10:09.664Z,24.84
2018-06-21T08:11:09.656Z,24.84
2018-06-21T08:12:09.658Z,24.85
2018-06-21T08:13:09.650Z,24.83
2018-06-21T08:14:09.643Z,24.73
2018-06-21T08:15:09.638Z,24.65
2018-06-21T08:16:09.634Z,24.83
2018-06-21T08:17:09.622Z,24.85
2018-06-21T08:18:09.627Z,24.80
2018-06-21T08:19:09.618Z,24.98
2018-06-21T08:20:09.627Z,24.96
2018-06-21T08:21:09.609Z,25.02
2018-06-21T08:22:09.604Z,24.98
2018-06-21T08:23:09.625Z,24.90
2018-06-21T08:24:09.589Z,25.00
2018-06-21T08:25:09.588Z,25.05
2018-06-21T08:26:09.585Z,25.14
2018-06-21T08:27:09.582Z,25.10
2018-06-21T08:28:09.573Z,25.25
2018-06-21T08:29:09.568Z,25.15
2018-06-21T08:30:09.567Z,25.10
2018-06-21T08:31:09.557Z,25.15
2018-06-21T08:32:09.608Z,25.13
2018-06-21T08:33:09.548Z,25.18
2018-06-21T08:34:09.542Z,25.09
2018-06-21T08:35:09.538Z,25.13
2018-06-21T08:36:09.529Z,25.18
2018-06-21T08:37:09.526Z,25.20
2018-06-21T08:38:09.524Z,25.23
2018-06-21T08:39:09.517Z,25.24
2018-06-21T08:40:09.508Z,25.20
2018-06-21T08:41:09.509Z,25.15
2018-06-21T08:42:09.503Z,25.06
2018-06-21T08:43:09.502Z,25.09
2018-06-21T08:44:09.493Z,25.09
2018-06-21T08:45:09.490Z,25.09
2018-06-21T08:46:09.569Z,25.06
2018-06-21T08:47:09.477Z,25.15
2018-06-21T08:48:09.474Z,25.13
2018-06-21T08:49:09.468Z,25.13
2018-06-21T08:50:09.474Z,25.14
2018-06-21T08:51:09.467Z,25.14
2018-06-21T08:52:09.461Z,25.14
2018-06-21T08:53:09.455Z,25.23
2018-06-21T08:54:09.447Z,25.17
2018-06-21T08:55:09.446Z,25.24
2018-06-21T08:56:09.438Z,25.21
2018-06-21T08:57:09.434Z,25.10
2018-06-21T08:58:09.430Z,25.13
2018-06-21T08:59:09.428Z,25.10
2018-06-21T09:00:09.418Z,25.10
2018-06-21T09:01:10.031Z,25.09
2018-06-21T09:02:09.410Z,25.17
2018-06-21T09:03:09.405Z,25.21
2018-06-21T09:04:09.397Z,25.13
2018-06-21T09:05:09.401Z,25.20
2018-06-21T09:06:09.392Z,25.24
2018-06-21T09:07:09.384Z,25.28
2018-06-21T09:08:09.378Z,25.39
2018-06-21T09:09:09.377Z,25.36
2018-06-21T09:10:09.370Z,25.33
2018-06-21T09:11:09.367Z,25.40
2018-06-21T09:12:09.358Z,25.45
2018-06-21T09:13:09.361Z,25.51
2018-06-21T09:14:09.354Z,25.55
2018-06-21T09:15:09.378Z,25.40
2018-06-21T09:16:09.341Z,25.50
2018-06-21T09:17:09.333Z,25.46
2018-06-21T09:18:09.332Z,25.45
2018-06-21T09:19:09.326Z,25.47
2018-06-21T09:20:09.320Z,25.32
2018-06-21T09:21:09.340Z,25.15
2018-06-21T09:22:09.316Z,25.13
2018-06-21T09:23:09.312Z,25.06
2018-06-21T09:24:09.302Z,25.13
2018-06-21T09:25:09.297Z,25.13
2018-06-21T09:26:09.299Z,25.18
2018-06-21T09:27:09.295Z,25.33
2018-06-21T09:28:09.291Z,25.47
2018-06-21T09:29:09.279Z,25.45
2018-06-21T09:30:09.278Z,25.61
2018-06-21T09:31:09.271Z,25.65
2018-06-21T09:32:09.267Z,25.45
2018-06-21T09:33:09.267Z,25.30
2018-06-21T09:34:09.255Z,25.18
2018-06-21T09:35:09.254Z,25.15
2018-06-21T09:36:09.252Z,24.98
2018-06-21T09:37:09.240Z,24.93
2018-06-21T09:38:09.238Z,25.00
2018-06-21T09:39:09.233Z,25.14
2018-06-21T09:40:09.227Z,25.23
2018-06-21T09:41:09.231Z,25.24
2018-06-21T09:42:09.219Z,25.46
2018-06-21T09:43:09.212Z,25.47
2018-06-21T09:44:09.208Z,25.61
2018-06-21T09:45:09.206Z,25.67
2018-06-21T09:46:09.200Z,25.73
2018-06-21T09:47:09.226Z,25.73
2018-06-21T09:48:09.192Z,25.83
2018-06-21T09:49:09.186Z,25.80
2018-06-21T09:50:09.181Z,25.76
2018-06-21T09:51:09.181Z,25.80
2018-06-21T09:52:09.171Z,25.80
2018-06-21T09:53:09.165Z,25.80
2018-06-21T09:54:09.164Z,25.91
2018-06-21T09:55:09.163Z,26.01
2018-06-21T09:56:09.155Z,25.92
2018-06-21T09:57:09.153Z,25.85
2018-06-21T09:58:09.158Z,25.88
2018-06-21T09:59:09.141Z,25.82
2018-06-21T10:00:09.138Z,25.88
2018-06-21T10:01:09.135Z,25.92
2018-06-21T10:02:09.122Z,25.90
2018-06-21T10:03:09.124Z,25.90
2018-06-21T10:04:09.116Z,25.92
2018-06-21T10:05:09.115Z,25.90
2018-06-21T10:06:09.106Z,25.88
2018-06-21T10:07:09.142Z,25.91
2018-06-21T10:08:09.099Z,26.09
2018-06-21T10:09:09.099Z,26.06
2018-06-21T10:10:09.091Z,25.99
2018-06-21T10:11:09.089Z,25.97
2018-06-21T10:12:09.082Z,26.09
2018-06-21T10:13:09.083Z,26.15
2018-06-21T10:14:09.080Z,26.23
2018-06-21T10:15:09.071Z,26.29
2018-06-21T10:16:09.071Z,26.30
2018-06-21T10:17:09.059Z,26.25
2018-06-21T10:18:09.061Z,26.32
2018-06-21T10:19:09.051Z,26.48
2018-06-21T10:20:09.060Z,26.36
2018-06-21T10:21:09.052Z,26.54
2018-06-21T10:22:09.037Z,26.60
2018-06-21T10:23:09.086Z,26.60
2018-06-21T10:24:09.031Z,26.66
2018-06-21T10:25:09.024Z,26.69
2018-06-21T10:26:09.018Z,26.75
2018-06-21T10:27:09.018Z,26.81
2018-06-21T10:28:09.014Z,26.81
2018-06-21T10:29:09.008Z,26.85
2018-06-21T10:30:09.004Z,26.85
2018-06-21T10:31:08.999Z,26.92
2018-06-21T10:32:09.003Z,27.02
2018-06-21T10:33:08.989Z,26.95
2018-06-21T10:34:08.991Z,27.09
2018-06-21T10:35:09.066Z,27.17
2018-06-21T10:36:08.978Z,27.09
2018-06-21T10:37:08.977Z,27.07
2018-06-21T10:38:08.973Z,27.09
2018-06-21T10:39:08.969Z,27.02
2018-06-21T10:40:08.967Z,27.03
2018-06-21T10:41:08.962Z,27.02
2018-06-21T10:42:08.958Z,27.13
2018-06-21T10:43:08.963Z,27.10
2018-06-21T10:44:08.949Z,27.14
2018-06-21T10:45:08.944Z,27.03
2018-06-21T10:46:08.942Z,27.06
2018-06-21T10:47:08.941Z,27.03
2018-06-21T10:48:08.937Z,26.95
2018-06-21T10:49:08.984Z,26.99
2018-06-21T10:50:08.935Z,26.99
2018-06-21T10:51:08.923Z,27.03
2018-06-21T10:52:08.921Z,27.03
2018-06-21T10:53:08.917Z,26.95
2018-06-21T10:54:08.915Z,27.09
2018-06-21T10:55:08.908Z,27.09
2018-06-21T10:56:08.903Z,27.12
2018-06-21T10:57:08.954Z,27.14
2018-06-21T10:58:08.900Z,27.27
2018-06-21T10:59:08.892Z,27.28
2018-06-21T11:00:08.890Z,27.17
2018-06-21T11:01:08.888Z,27.24
2018-06-21T11:02:08.888Z,27.21
2018-06-21T11:03:08.886Z,27.24
2018-06-21T11:04:08.879Z,27.18
2018-06-21T11:05:08.876Z,27.13
2018-06-21T11:06:08.875Z,27.28
2018-06-21T11:07:08.865Z,27.19
2018-06-21T11:08:08.897Z,27.09
2018-06-21T11:09:08.861Z,27.13
2018-06-21T11:10:08.859Z,27.13
2018-06-21T11:11:08.848Z,27.28
2018-06-21T11:12:08.848Z,27.34
2018-06-21T11:13:08.846Z,27.34
2018-06-21T11:14:08.843Z,27.40
2018-06-21T11:15:08.837Z,27.46
2018-06-21T11:16:08.833Z,27.50
2018-06-21T11:17:08.833Z,27.51
2018-06-21T11:18:08.824Z,27.54
2018-06-21T11:19:08.820Z,27.57
2018-06-21T11:20:08.822Z,27.66
2018-06-21T11:21:08.816Z,27.57
2018-06-21T11:22:08.816Z,27.66
2018-06-21T11:23:08.810Z,27.65
2018-06-21T11:24:08.803Z,27.65
2018-06-21T11:25:08.802Z,27.57
2018-06-21T11:26:08.802Z,27.63
2018-06-21T11:27:08.802Z,27.66
2018-06-21T11:28:08.795Z,27.63
2018-06-21T11:29:08.791Z,27.63
2018-06-21T11:30:08.789Z,27.66
2018-06-21T11:31:08.785Z,27.55
2018-06-21T11:32:08.785Z,27.54
2018-06-21T11:33:08.778Z,27.54
2018-06-21T11:34:08.779Z,27.62
2018-06-21T11:35:08.766Z,27.57
2018-06-21T11:36:08.764Z,27.72
2018-06-21T11:37:08.766Z,27.72
2018-06-21T11:38:08.771Z,27.70
2018-06-21T11:39:08.754Z,27.85
2018-06-21T11:40:08.756Z,27.78
2018-06-21T11:41:08.752Z,27.78
2018-06-21T11:42:08.746Z,27.65
2018-06-21T11:43:08.745Z,27.62
2018-06-21T11:44:08.742Z,27.66
2018-06-21T11:45:08.741Z,27.63
2018-06-21T11:46:08.743Z,27.57
2018-06-21T11:47:08.732Z,27.67
2018-06-21T11:48:08.726Z,27.63
2018-06-21T11:49:08.727Z,27.81
2018-06-21T11:50:08.720Z,27.75
2018-06-21T11:51:08.721Z,27.85
2018-06-21T11:52:08.721Z,27.94
2018-06-21T11:53:08.715Z,27.87
2018-06-21T11:54:08.709Z,27.88
2018-06-21T11:55:08.705Z,27.92
2018-06-21T11:56:08.707Z,27.93
2018-06-21T11:57:08.699Z,27.96
2018-06-21T11:58:08.700Z,27.90
2018-06-21T11:59:08.692Z,27.94
2018-06-21T12:00:08.699Z,28.00
2018-06-21T12:01:08.690Z,27.99
2018-06-21T12:02:08.693Z,27.97
2018-06-21T12:03:08.687Z,28.04
2018-06-21T12:04:08.679Z,27.93
2018-06-21T12:05:08.681Z,27.97
2018-06-21T12:06:08.676Z,28.07
2018-06-21T12:07:08.666Z,28.07
2018-06-21T12:08:08.668Z,28.17
2018-06-21T12:09:08.665Z,28.12
2018-06-21T12:10:08.667Z,28.11
2018-06-21T12:11:08.659Z,28.14
2018-06-21T12:12:08.657Z,28.07
2018-06-21T12:13:08.663Z,28.03
2018-06-21T12:14:08.704Z,28.04
2018-06-21T12:15:08.646Z,28.14
2018-06-21T12:16:08.648Z,28.21
2018-06-21T12:17:08.639Z,28.18
2018-06-21T12:18:08.642Z,28.31
2018-06-21T12:19:08.636Z,28.29
2018-06-21T12:20:08.639Z,28.36
2018-06-21T12:21:08.634Z,28.39
2018-06-21T12:22:08.628Z,28.37
2018-06-21T12:23:08.627Z,28.48
2018-06-21T12:24:08.623Z,28.33
2018-06-21T12:25:08.624Z,28.33
2018-06-21T12:26:08.633Z,28.34
2018-06-21T12:27:08.611Z,28.29
2018-06-21T12:28:08.616Z,28.21
2018-06-21T12:29:08.618Z,28.25
2018-06-21T12:30:08.608Z,28.33
2018-06-21T12:31:08.605Z,28.31
2018-06-21T12:32:08.630Z,28.39
2018-06-21T12:33:08.600Z,28.54
2018-06-21T12:34:08.595Z,28.55
2018-06-21T12:35:08.594Z,28.64
2018-06-21T12:36:08.595Z,28.49
2018-06-21T12:37:08.588Z,28.59
2018-06-21T12:38:08.589Z,28.36
2018-06-21T12:39:08.591Z,28.44
2018-06-21T12:40:08.580Z,28.31
2018-06-21T12:41:08.584Z,28.36
2018-06-21T12:42:08.577Z,28.19
2018-06-21T12:43:08.576Z,28.25
2018-06-21T12:44:08.573Z,28.29
2018-06-21T12:45:08.569Z,28.31
2018-06-21T12:46:08.568Z,28.30
2018-06-21T12:47:08.565Z,28.30
2018-06-21T12:48:08.563Z,28.15
2018-06-21T12:49:08.561Z,28.18
2018-06-21T12:50:08.570Z,28.17
2018-06-21T12:51:08.559Z,28.15
2018-06-21T12:52:08.550Z,28.11